Time;durP1;ratioP1;P1;durP2;ratioP2;P2;SDS_P1;SDS_P2;PMS_P1;PMS_P2;Temp;Humidity;BMP_temperature;BMP_pressure;BME280_temperature;BME280_humidity;BME280_pressure;Samples;Min_cycle;Max_cycle;Signal;HPM_P1;HPM_P2
2023/10/18 00:00:25;;;;;;;16.52;9.20;;;32.70;99.90;;;;;;5067048;28;20028;-50
2023/10/18 00:02:54;;;;;;;17.20;10.30;;;32.70;99.90;;;;;;5068068;28;20040;-48
2023/10/18 00:05:24;;;;;;;14.00;9.30;;;32.80;99.90;;;;;;5067631;28;20115;-49
2023/10/18 00:07:51;;;;;;;15.35;10.20;;;32.70;99.90;;;;;;5059498;28;20176;-48
2023/10/18 00:10:17;;;;;;;14.02;9.30;;;32.70;99.90;;;;;;5067366;28;20040;-47
2023/10/18 00:12:44;;;;;;;16.80;9.57;;;32.60;99.90;;;;;;5068581;28;20037;-50
2023/10/18 00:15:11;;;;;;;11.27;9.00;;;32.70;99.90;;;;;;5050799;28;20039;-48
2023/10/18 00:17:39;;;;;;;14.63;9.90;;;32.70;99.90;;;;;;5062121;28;20029;-50
2023/10/18 00:20:13;;;;;;;16.50;9.30;;;32.60;99.90;;;;;;5070057;28;20031;-50
2023/10/18 00:22:42;;;;;;;16.30;9.07;;;32.60;99.90;;;;;;5068716;28;20052;-49
2023/10/18 00:25:10;;;;;;;14.38;9.43;;;32.70;99.90;;;;;;5069549;28;20026;-51
2023/10/18 00:27:37;;;;;;;15.65;9.15;;;32.70;99.90;;;;;;5060294;28;20386;-48
2023/10/18 00:30:23;;;;;;;16.25;10.05;;;32.70;99.90;;;;;;5069215;28;20036;-49
2023/10/18 00:32:49;;;;;;;19.08;9.65;;;32.70;99.90;;;;;;5067752;28;20615;-50
2023/10/18 00:35:22;;;;;;;12.88;8.82;;;32.70;99.90;;;;;;5066254;28;20103;-48
2023/10/18 00:37:49;;;;;;;14.95;9.82;;;32.70;99.90;;;;;;5067515;28;20387;-48
2023/10/18 00:43:05;;;;;;;17.63;9.65;;;32.70;99.90;;;;;;5071142;28;20028;-49
2023/10/18 00:45:31;;;;;;;12.70;9.43;;;32.60;99.90;;;;;;5070640;28;20085;-49
2023/10/18 00:48:00;;;;;;;13.52;9.07;;;32.70;99.90;;;;;;5068102;28;20470;-51
2023/10/18 00:50:27;;;;;;;11.65;9.00;;;32.60;99.90;;;;;;5065150;28;20470;-48
2023/10/18 00:52:54;;;;;;;13.07;9.95;;;32.70;99.90;;;;;;5058145;28;20560;-49
2023/10/18 00:55:19;;;;;;;14.10;9.90;;;32.70;99.90;;;;;;5056736;28;20052;-49
2023/10/18 00:57:47;;;;;;;13.02;8.50;;;32.70;99.90;;;;;;5071034;28;20028;-48
2023/10/18 01:00:19;;;;;;;13.52;9.18;;;32.70;99.90;;;;;;5053319;28;20044;-49
2023/10/18 01:02:48;;;;;;;15.48;9.18;;;32.60;99.90;;;;;;5054680;28;20489;-53
2023/10/18 01:05:15;;;;;;;15.75;9.27;;;32.60;99.90;;;;;;5057650;28;20021;-50
2023/10/18 01:07:42;;;;;;;18.38;9.52;;;32.60;99.90;;;;;;5045624;28;20111;-52
2023/10/18 01:10:09;;;;;;;19.00;9.55;;;32.60;99.90;;;;;;5069737;28;20044;-53
2023/10/18 01:12:37;;;;;;;10.65;8.30;;;32.60;99.90;;;;;;5042163;28;20086;-52
2023/10/18 01:15:06;;;;;;;14.13;9.13;;;32.60;99.90;;;;;;5053677;28;20025;-53
2023/10/18 01:17:34;;;;;;;10.45;8.73;;;32.60;99.90;;;;;;5047893;28;20111;-53
2023/10/18 01:20:12;;;;;;;12.25;8.75;;;32.60;99.90;;;;;;5068451;28;20032;-53
2023/10/18 01:22:42;;;;;;;12.73;8.48;;;32.60;99.90;;;;;;5037116;28;20020;-50
2023/10/18 01:25:13;;;;;;;15.98;9.13;;;32.60;99.90;;;;;;5072172;28;20052;-51
2023/10/18 01:27:38;;;;;;;12.02;8.40;;;32.60;99.90;;;;;;5073237;28;20021;-51
2023/10/18 01:30:06;;;;;;;14.35;9.27;;;32.60;99.90;;;;;;5074527;28;20044;-51
2023/10/18 01:32:31;;;;;;;13.85;8.85;;;32.60;99.90;;;;;;5062486;28;20032;-49
2023/10/18 01:34:57;;;;;;;14.75;8.05;;;32.60;99.90;;;;;;5070607;28;20470;-52
2023/10/18 01:37:22;;;;;;;10.85;9.00;;;32.60;99.90;;;;;;5063562;28;20040;-51
2023/10/18 01:40:12;;;;;;;13.85;9.13;;;32.60;99.90;;;;;;5073307;28;20112;-49
2023/10/18 01:42:38;;;;;;;11.02;8.75;;;32.70;99.90;;;;;;5053813;28;20111;-49
2023/10/18 01:45:07;;;;;;;12.55;8.60;;;32.60;99.90;;;;;;5055506;28;20443;-49
2023/10/18 01:47:35;;;;;;;15.38;8.57;;;32.60;99.90;;;;;;5066080;28;20028;-54
2023/10/18 01:50:01;;;;;;;29.15;10.75;;;32.60;99.90;;;;;;5060105;28;20059;-49
2023/10/18 01:52:37;;;;;;;12.23;9.43;;;32.60;99.90;;;;;;5064366;28;20084;-55
2023/10/18 01:55:06;;;;;;;12.43;9.20;;;32.60;99.90;;;;;;5061355;28;20032;-50
2023/10/18 01:57:41;;;;;;;11.10;9.07;;;32.60;99.90;;;;;;5070761;28;20036;-49
2023/10/18 02:00:12;;;;;;;14.02;8.55;;;32.50;99.90;;;;;;5070455;28;20424;-50
2023/10/18 02:02:38;;;;;;;16.70;9.00;;;32.60;99.90;;;;;;5074108;28;20107;-49
2023/10/18 02:05:07;;;;;;;16.33;8.30;;;32.60;99.90;;;;;;5072406;28;20104;-51
2023/10/18 02:07:35;;;;;;;12.77;8.40;;;32.60;99.90;;;;;;5066258;28;20102;-49
2023/10/18 02:10:02;;;;;;;17.55;9.43;;;32.60;99.90;;;;;;5064751;28;20433;-53
2023/10/18 02:12:29;;;;;;;13.02;8.52;;;32.60;99.90;;;;;;5072485;28;20166;-50
2023/10/18 02:14:59;;;;;;;17.90;9.00;;;32.50;99.90;;;;;;5063611;28;20033;-49
2023/10/18 02:17:27;;;;;;;14.43;8.48;;;32.50;99.90;;;;;;5059001;28;20073;-50
2023/10/18 02:19:54;;;;;;;15.52;8.90;;;32.50;99.90;;;;;;5073263;28;20067;-50
2023/10/18 02:22:19;;;;;;;11.77;8.32;;;32.50;99.90;;;;;;5055035;28;20033;-50
2023/10/18 02:24:45;;;;;;;15.65;8.88;;;32.50;99.90;;;;;;5058998;28;20282;-49
2023/10/18 02:27:23;;;;;;;13.25;8.38;;;32.50;99.90;;;;;;5070671;28;20115;-49
2023/10/18 02:29:51;;;;;;;12.27;7.88;;;32.50;99.90;;;;;;5071976;28;20031;-49
2023/10/18 02:32:23;;;;;;;11.80;7.97;;;32.50;99.90;;;;;;5063201;28;20043;-49
2023/10/18 02:34:52;;;;;;;10.23;7.43;;;32.50;99.90;;;;;;5070398;28;20024;-52
2023/10/18 02:37:19;;;;;;;11.73;7.45;;;32.50;99.90;;;;;;5071041;28;20032;-49
2023/10/18 02:39:45;;;;;;;12.57;8.48;;;32.50;99.90;;;;;;5070754;28;20059;-52
2023/10/18 02:42:13;;;;;;;16.35;8.32;;;32.50;99.90;;;;;;5071734;28;20032;-51
2023/10/18 02:44:44;;;;;;;11.52;8.07;;;32.40;99.90;;;;;;5071152;28;20378;-53
2023/10/18 02:47:16;;;;;;;12.00;8.52;;;32.40;99.90;;;;;;5044510;28;20028;-49
2023/10/18 02:49:53;;;;;;;10.25;7.53;;;32.40;99.90;;;;;;5058264;28;20497;-54
2023/10/18 02:52:19;;;;;;;14.68;8.85;;;32.40;99.90;;;;;;5067745;28;20079;-54
2023/10/18 02:54:48;;;;;;;10.43;7.55;;;32.40;99.90;;;;;;5052814;28;20470;-49
2023/10/18 02:57:14;;;;;;;12.13;7.53;;;32.40;99.90;;;;;;5055455;28;20370;-49
2023/10/18 02:59:43;;;;;;;14.02;7.80;;;32.40;99.90;;;;;;5065244;28;20024;-50
2023/10/18 03:02:15;;;;;;;12.98;7.85;;;32.40;99.90;;;;;;5072701;28;20016;-48
2023/10/18 03:04:47;;;;;;;13.77;8.70;;;32.40;99.90;;;;;;5068614;28;20045;-48
2023/10/18 03:07:13;;;;;;;12.18;8.80;;;32.40;99.90;;;;;;5072557;28;20047;-48
2023/10/18 03:09:39;;;;;;;15.48;8.10;;;32.50;99.90;;;;;;5063610;28;20029;-49
2023/10/18 03:12:15;;;;;;;16.52;9.00;;;32.40;99.90;;;;;;5070284;28;20056;-48
2023/10/18 03:14:53;;;;;;;13.63;8.73;;;32.40;99.90;;;;;;5071007;28;20111;-48
2023/10/18 03:17:23;;;;;;;14.98;8.30;;;32.30;99.90;;;;;;5052352;28;20382;-51
2023/10/18 03:20:23;;;;;;;12.90;7.82;;;32.30;99.90;;;;;;5067182;28;20421;-50
2023/10/18 03:22:50;;;;;;;15.02;7.57;;;32.40;99.90;;;;;;5072444;28;20020;-52
2023/10/18 03:25:32;;;;;;;9.93;7.45;;;32.40;99.90;;;;;;5066887;28;20066;-51
2023/10/18 03:27:58;;;;;;;13.25;7.47;;;32.40;99.90;;;;;;5067314;28;20453;-52
2023/10/18 03:30:41;;;;;;;11.23;6.93;;;32.40;99.90;;;;;;5060971;28;20021;-49
2023/10/18 03:33:07;;;;;;;8.68;6.35;;;32.40;99.90;;;;;;5062763;28;20045;-52
2023/10/18 03:35:38;;;;;;;10.95;6.65;;;32.30;99.90;;;;;;5059727;28;20080;-49
2023/10/18 03:38:07;;;;;;;11.70;7.05;;;32.30;99.90;;;;;;5066224;28;20470;-50
2023/10/18 03:40:36;;;;;;;10.20;6.53;;;32.30;99.90;;;;;;5068139;28;20470;-53
2023/10/18 03:43:09;;;;;;;9.05;6.88;;;32.30;99.90;;;;;;5073071;28;20478;-50
2023/10/18 03:51:57;;;;;;;8.90;6.07;;;32.30;99.90;;;;;;5071497;28;20043;-49
2023/10/18 03:54:26;;;;;;;9.52;6.65;;;32.30;99.90;;;;;;5069020;28;20056;-51
2023/10/18 03:56:52;;;;;;;14.02;7.47;;;32.30;99.90;;;;;;5064770;28;20059;-52
2023/10/18 03:59:21;;;;;;;10.60;6.63;;;32.30;99.90;;;;;;5068663;28;20036;-53
2023/10/18 04:02:15;;;;;;;8.77;6.03;;;32.30;99.90;;;;;;5066878;28;20020;-53
2023/10/18 04:04:44;;;;;;;11.63;6.35;;;32.30;99.90;;;;;;5069220;28;20037;-51
2023/10/18 04:07:13;;;;;;;10.20;6.45;;;32.30;99.90;;;;;;5053930;28;20024;-52
2023/10/18 04:09:54;;;;;;;9.00;6.18;;;32.30;99.90;;;;;;5069117;28;20021;-53
2023/10/18 04:12:23;;;;;;;10.85;6.53;;;32.30;99.90;;;;;;5064285;28;20097;-53
2023/10/18 04:14:52;;;;;;;13.55;6.70;;;32.30;99.90;;;;;;5038382;28;20139;-50
2023/10/18 04:17:38;;;;;;;9.82;6.95;;;32.30;99.90;;;;;;5068897;28;20030;-51
2023/10/18 04:20:12;;;;;;;11.13;6.60;;;32.30;99.90;;;;;;5072521;28;20024;-53
2023/10/18 04:22:38;;;;;;;10.80;6.97;;;32.30;99.90;;;;;;5071032;28;20032;-49
2023/10/18 04:25:14;;;;;;;11.27;7.05;;;32.30;99.90;;;;;;5072316;28;20387;-50
2023/10/18 04:27:40;;;;;;;9.13;6.32;;;32.30;99.90;;;;;;5068356;28;20021;-49
2023/10/18 04:30:06;;;;;;;7.40;6.70;;;32.30;99.90;;;;;;5072309;28;20020;-49
2023/10/18 04:32:32;;;;;;;10.20;6.07;;;32.30;99.90;;;;;;5069777;28;20491;-50
2023/10/18 04:34:59;;;;;;;8.63;6.72;;;32.30;99.90;;;;;;5072280;28;20086;-51
2023/10/18 04:37:26;;;;;;;9.55;6.72;;;32.30;99.90;;;;;;5070489;28;20078;-48
2023/10/18 04:39:53;;;;;;;11.13;6.38;;;32.30;99.90;;;;;;5047436;28;20478;-49
2023/10/18 04:42:18;;;;;;;9.13;7.05;;;32.40;99.90;;;;;;5063100;28;20119;-49
2023/10/18 04:44:49;;;;;;;10.15;6.75;;;32.40;99.90;;;;;;5051055;28;20116;-49
2023/10/18 04:47:14;;;;;;;12.00;7.18;;;32.30;99.90;;;;;;5070603;28;20043;-50
2023/10/18 04:49:50;;;;;;;8.73;6.55;;;32.30;99.90;;;;;;5066584;28;20028;-50
2023/10/18 04:52:28;;;;;;;13.48;6.97;;;32.30;99.90;;;;;;5056182;28;20060;-52
2023/10/18 04:55:04;;;;;;;13.30;7.00;;;32.30;99.90;;;;;;5065294;28;20035;-49
2023/10/18 04:57:31;;;;;;;10.88;7.82;;;32.30;99.90;;;;;;5066669;28;20043;-49
2023/10/18 05:00:10;;;;;;;11.98;7.63;;;32.30;99.90;;;;;;5069971;28;20466;-50
2023/10/18 05:02:38;;;;;;;9.88;6.28;;;32.30;99.90;;;;;;5057077;28;20024;-50
2023/10/18 05:05:10;;;;;;;11.85;7.40;;;32.30;99.90;;;;;;5051009;28;20501;-51
2023/10/18 05:07:42;;;;;;;13.40;6.65;;;32.30;99.90;;;;;;5071987;28;20031;-50
2023/10/18 05:10:14;;;;;;;10.27;7.20;;;32.30;99.90;;;;;;5071290;28;20476;-49
2023/10/18 05:13:02;;;;;;;10.65;7.15;;;32.30;99.90;;;;;;5068118;28;20086;-51
2023/10/18 05:15:29;;;;;;;11.18;7.50;;;32.30;99.90;;;;;;5055384;28;20334;-49
2023/10/18 05:18:37;;;;;;;12.18;7.65;;;32.40;99.90;;;;;;5036958;28;20098;-48
2023/10/18 05:20:47;;;;;;;10.65;7.15;;;32.40;99.90;;;;;;5060989;28;20047;-49
2023/10/18 05:28:47;;;;;;;13.10;8.15;;;32.30;99.90;;;;;;5060422;28;20028;-53
2023/10/18 05:34:18;;;;;;;12.23;7.53;;;32.40;99.90;;;;;;5067023;28;20052;-48
2023/10/18 05:41:59;;;;;;;12.55;8.73;;;32.30;99.90;;;;;;5067655;28;20032;-50
2023/10/18 05:44:27;;;;;;;12.27;8.00;;;32.30;99.90;;;;;;5064701;28;20029;-48
2023/10/18 05:46:54;;;;;;;11.75;8.25;;;32.30;99.90;;;;;;5065504;28;20098;-49
2023/10/18 05:49:23;;;;;;;13.57;8.35;;;32.30;99.90;;;;;;5062318;28;20031;-50
2023/10/18 05:59:37;;;;;;;12.43;8.80;;;32.30;99.90;;;;;;5043774;28;20882;-52
2023/10/18 06:05:01;;;;;;;18.13;9.13;;;32.30;99.90;;;;;;5031871;28;20044;-48
2023/10/18 06:07:29;;;;;;;11.82;8.10;;;32.30;99.90;;;;;;5060947;28;20033;-50
2023/10/18 06:12:23;;;;;;;16.98;10.18;;;32.30;99.90;;;;;;5071563;28;20068;-52
2023/10/18 06:14:53;;;;;;;13.85;9.13;;;32.30;99.90;;;;;;5066233;28;20060;-49
2023/10/18 06:20:41;;;;;;;16.75;9.57;;;32.30;99.90;;;;;;5061426;28;20043;-53
2023/10/18 06:23:08;;;;;;;16.65;10.32;;;32.20;99.90;;;;;;5059939;28;20036;-53
2023/10/18 06:25:44;;;;;;;17.05;9.48;;;32.30;99.90;;;;;;5070697;28;20701;-51
2023/10/18 06:28:10;;;;;;;12.57;9.48;;;32.30;99.90;;;;;;5061729;28;20077;-51
2023/10/18 06:30:39;;;;;;;13.35;9.18;;;32.30;99.90;;;;;;5061012;28;20033;-49
2023/10/18 06:33:07;;;;;;;14.38;9.23;;;32.30;99.90;;;;;;5056128;28;20120;-49
2023/10/18 06:35:42;;;;;;;15.93;9.77;;;32.30;99.90;;;;;;5060708;28;20021;-49
2023/10/18 06:38:17;;;;;;;15.98;9.30;;;32.30;99.90;;;;;;5069557;28;20063;-50
2023/10/18 06:40:53;;;;;;;14.70;9.05;;;32.30;99.90;;;;;;5063494;28;20028;-50
2023/10/18 06:43:20;;;;;;;15.13;8.43;;;32.30;99.90;;;;;;5046553;28;20109;-53
2023/10/18 06:45:48;;;;;;;13.68;9.15;;;32.30;99.90;;;;;;5039884;28;20108;-53
2023/10/18 06:48:17;;;;;;;15.45;9.25;;;32.40;99.90;;;;;;5062437;28;20168;-49
2023/10/18 06:50:46;;;;;;;9.80;8.25;;;32.30;99.90;;;;;;5062255;28;20173;-51
2023/10/18 06:53:15;;;;;;;11.63;9.05;;;32.30;99.90;;;;;;5050598;28;20060;-52
2023/10/18 06:55:45;;;;;;;11.50;9.15;;;32.30;99.90;;;;;;5064889;28;20074;-52
2023/10/18 06:58:13;;;;;;;11.77;8.10;;;32.30;99.90;;;;;;5065525;28;20032;-53
2023/10/18 07:00:51;;;;;;;12.55;7.72;;;32.30;99.90;;;;;;5058038;28;20374;-52
2023/10/18 07:03:18;;;;;;;13.35;8.25;;;32.30;99.90;;;;;;5049246;28;20037;-58
2023/10/18 07:05:49;;;;;;;12.30;8.88;;;32.30;99.90;;;;;;5062517;28;20056;-62
2023/10/18 07:08:29;;;;;;;14.00;9.15;;;32.40;99.90;;;;;;5070677;28;20017;-64
2023/10/18 07:10:55;;;;;;;15.32;9.27;;;32.30;99.90;;;;;;5064055;28;20081;-67
2023/10/18 07:13:34;;;;;;;15.98;9.73;;;32.40;99.90;;;;;;5072889;28;20405;-59
2023/10/18 07:21:50;;;;;;;14.15;8.73;;;32.30;99.90;;;;;;5046909;28;20041;-62
2023/10/18 07:24:20;;;;;;;15.13;9.25;;;32.30;99.90;;;;;;5065025;28;20038;-61
2023/10/18 07:26:47;;;;;;;20.73;10.05;;;32.30;99.90;;;;;;5065269;28;20020;-62
2023/10/18 07:29:16;;;;;;;16.73;9.45;;;32.40;99.90;;;;;;5054963;28;20021;-62
2023/10/18 07:31:45;;;;;;;15.20;9.88;;;32.40;99.90;;;;;;5070422;28;20029;-72
2023/10/18 07:35:06;;;;;;;13.73;9.07;;;32.40;99.90;;;;;;5069662;28;20458;-60
2023/10/18 07:37:32;;;;;;;17.92;10.43;;;32.40;99.90;;;;;;5066057;28;20036;-60
2023/10/18 07:40:04;;;;;;;16.15;9.82;;;32.40;99.90;;;;;;5067110;28;20031;-59
2023/10/18 07:42:35;;;;;;;15.63;9.98;;;32.40;99.90;;;;;;5059769;28;20032;-59
2023/10/18 07:45:04;;;;;;;11.70;9.40;;;32.40;99.90;;;;;;5070354;28;20052;-58
2023/10/18 07:47:37;;;;;;;15.80;9.65;;;32.40;99.90;;;;;;5062073;28;20040;-60
2023/10/18 07:50:25;;;;;;;17.35;9.73;;;32.50;99.90;;;;;;5073346;28;20530;-63
2023/10/18 07:52:54;;;;;;;13.75;8.82;;;32.50;99.90;;;;;;5063666;28;20269;-61
2023/10/18 07:55:23;;;;;;;13.00;9.38;;;32.50;99.90;;;;;;5062003;28;20025;-64
2023/10/18 07:57:49;;;;;;;16.10;8.65;;;32.50;99.90;;;;;;5064120;28;20171;-70
2023/10/18 08:00:21;;;;;;;13.05;8.95;;;32.40;99.90;;;;;;5072837;28;20041;-65
2023/10/18 08:02:50;;;;;;;16.20;9.38;;;32.40;99.90;;;;;;5069156;28;20056;-65
2023/10/18 08:05:30;;;;;;;11.88;8.77;;;32.50;99.90;;;;;;5064599;28;20035;-61
2023/10/18 08:07:57;;;;;;;14.05;9.23;;;32.40;99.90;;;;;;5053063;28;20454;-62
2023/10/18 08:10:23;;;;;;;11.60;8.35;;;32.40;99.90;;;;;;5052974;28;20448;-60
2023/10/18 08:13:11;;;;;;;25.40;10.18;;;32.40;99.90;;;;;;5067682;28;20036;-58
2023/10/18 08:15:37;;;;;;;12.95;9.55;;;32.40;99.90;;;;;;5063749;28;20017;-64
2023/10/18 08:18:14;;;;;;;15.25;8.18;;;32.40;99.90;;;;;;5049597;28;20024;-59
2023/10/18 08:26:08;;;;;;;10.90;7.90;;;32.50;99.90;;;;;;5067945;28;20024;-64
2023/10/18 08:28:39;;;;;;;15.93;8.75;;;32.50;99.90;;;;;;5059365;28;20037;-57
2023/10/18 08:31:34;;;;;;;14.90;10.18;;;32.50;99.90;;;;;;5067031;28;20021;-61
2023/10/18 08:34:05;;;;;;;10.27;8.65;;;32.50;99.90;;;;;;5055623;28;20347;-59
2023/10/18 08:36:31;;;;;;;14.07;9.60;;;32.50;99.90;;;;;;5065056;28;20117;-53
2023/10/18 08:38:58;;;;;;;14.48;10.07;;;32.50;99.90;;;;;;5064192;28;20079;-55
2023/10/18 08:41:36;;;;;;;13.70;8.95;;;32.50;99.90;;;;;;5063027;28;20120;-69
2023/10/18 08:44:15;;;;;;;14.57;8.60;;;32.50;99.90;;;;;;5051054;28;20031;-62
2023/10/18 08:46:43;;;;;;;13.55;9.30;;;32.60;99.90;;;;;;5042515;28;20334;-59
2023/10/18 08:49:13;;;;;;;14.07;9.10;;;32.60;99.90;;;;;;5066731;28;20081;-61
2023/10/18 08:51:44;;;;;;;13.15;9.00;;;32.60;99.90;;;;;;5059494;28;20116;-61
2023/10/18 08:54:18;;;;;;;15.48;9.25;;;32.60;99.90;;;;;;5074094;28;20460;-62
2023/10/18 08:56:47;;;;;;;12.90;9.73;;;32.60;99.90;;;;;;5074082;28;20028;-61
2023/10/18 08:59:18;;;;;;;14.82;9.43;;;32.60;99.90;;;;;;5068710;28;20035;-60
2023/10/18 09:02:09;;;;;;;14.20;9.70;;;32.60;99.90;;;;;;5065319;28;20140;-58
2023/10/18 09:04:31;;;;;;;11.25;8.75;;;32.60;99.90;;;;;;5070628;28;20032;-58
2023/10/18 09:07:17;;;;;;;16.85;10.02;;;32.60;99.90;;;;;;5062281;28;20025;-61
2023/10/18 09:09:53;;;;;;;17.05;10.13;;;32.60;99.90;;;;;;5066156;28;20032;-63
2023/10/18 09:12:31;;;;;;;12.73;8.75;;;32.60;99.90;;;;;;5064553;28;20036;-69
2023/10/18 09:14:58;;;;;;;29.88;9.88;;;32.60;99.90;;;;;;5065227;28;20119;-61
2023/10/18 09:17:24;;;;;;;14.80;8.50;;;32.60;99.90;;;;;;5051107;28;20028;-61
2023/10/18 09:19:57;;;;;;;22.65;10.93;;;32.60;99.90;;;;;;5066155;28;20023;-70
2023/10/18 09:22:23;;;;;;;30.38;10.68;;;32.60;99.90;;;;;;5066248;28;20021;-58
2023/10/18 09:24:48;;;;;;;13.80;9.65;;;32.60;99.90;;;;;;5070967;28;20032;-63
2023/10/18 09:27:14;;;;;;;15.40;9.70;;;32.60;99.90;;;;;;5059126;28;20024;-73
2023/10/18 09:29:39;;;;;;;28.27;11.00;;;32.60;99.90;;;;;;5061618;28;20592;-65
2023/10/18 09:32:12;;;;;;;19.60;9.90;;;32.60;99.90;;;;;;5046821;28;20095;-58
2023/10/18 09:34:38;;;;;;;15.98;10.05;;;32.60;99.90;;;;;;5062162;28;20020;-65
2023/10/18 09:37:10;;;;;;;15.02;10.15;;;32.70;99.90;;;;;;5071153;28;20027;-60
2023/10/18 09:39:37;;;;;;;18.65;10.60;;;32.60;99.90;;;;;;5073142;28;20462;-63
2023/10/18 09:42:16;;;;;;;15.73;10.07;;;32.60;99.90;;;;;;5072430;28;20481;-68
2023/10/18 09:44:42;;;;;;;16.45;9.55;;;32.60;99.90;;;;;;5074059;28;20115;-64
2023/10/18 09:47:08;;;;;;;23.25;10.45;;;32.60;99.90;;;;;;5067844;28;20036;-64
2023/10/18 09:49:34;;;;;;;12.82;9.45;;;32.60;99.90;;;;;;5056623;28;20433;-65
2023/10/18 09:52:03;;;;;;;15.90;10.27;;;32.60;99.90;;;;;;5056612;28;20028;-61
2023/10/18 09:54:36;;;;;;;17.55;10.43;;;32.60;99.90;;;;;;5066834;28;20093;-59
2023/10/18 09:57:06;;;;;;;18.67;10.98;;;32.60;99.90;;;;;;5074550;28;20064;-60
2023/10/18 10:03:12;;;;;;;13.90;10.90;;;32.60;99.90;;;;;;5070893;28;20537;-59
2023/10/18 10:05:44;;;;;;;16.00;10.93;;;32.60;99.90;;;;;;5072510;28;20043;-55
2023/10/18 10:08:11;;;;;;;14.68;11.10;;;32.60;99.90;;;;;;5073191;28;20358;-60
2023/10/18 10:10:46;;;;;;;18.88;12.10;;;32.60;99.90;;;;;;5074798;28;20020;-59
2023/10/18 10:13:25;;;;;;;20.88;11.60;;;32.60;99.90;;;;;;5052958;28;20040;-64
2023/10/18 10:15:58;;;;;;;17.40;11.38;;;32.60;99.90;;;;;;5070525;28;20500;-63
2023/10/18 10:18:26;;;;;;;25.95;12.35;;;32.60;99.90;;;;;;5063271;28;20036;-58
2023/10/18 10:20:55;;;;;;;17.50;11.93;;;32.60;99.90;;;;;;5051424;28;20017;-56
2023/10/18 10:23:21;;;;;;;15.20;11.55;;;32.60;99.90;;;;;;5071728;28;20032;-61
2023/10/18 10:26:22;;;;;;;17.10;11.00;;;32.50;99.90;;;;;;5059417;28;20021;-63
2023/10/18 10:32:06;;;;;;;15.65;12.30;;;32.60;99.90;;;;;;5064850;28;20112;-59
2023/10/18 10:34:37;;;;;;;23.15;11.63;;;32.60;99.90;;;;;;5070145;28;20029;-59
2023/10/18 10:37:11;;;;;;;20.23;12.43;;;32.60;99.90;;;;;;5071897;28;20041;-59
2023/10/18 10:39:49;;;;;;;14.68;11.80;;;32.50;99.90;;;;;;5074691;28;20024;-59
2023/10/18 10:42:41;;;;;;;21.27;13.60;;;32.60;99.90;;;;;;5066885;28;20470;-59
2023/10/18 10:45:23;;;;;;;22.98;12.95;;;32.60;99.90;;;;;;5052759;28;20076;-57
2023/10/18 10:47:52;;;;;;;19.55;12.68;;;32.60;99.90;;;;;;5059783;28;20356;-59
2023/10/18 10:50:45;;;;;;;28.95;17.55;;;32.60;99.90;;;;;;5064327;28;20027;-62
2023/10/18 10:53:27;;;;;;;18.02;13.43;;;32.60;99.90;;;;;;5044010;28;20041;-62
2023/10/18 10:55:54;;;;;;;18.90;13.57;;;32.60;99.90;;;;;;5060267;28;20024;-62
2023/10/18 10:58:22;;;;;;;21.02;13.77;;;32.60;99.90;;;;;;5074113;28;20100;-63
2023/10/18 11:01:12;;;;;;;16.17;12.23;;;32.60;99.90;;;;;;5074237;28;20032;-62
2023/10/18 11:03:53;;;;;;;20.55;13.63;;;32.60;99.90;;;;;;5061766;28;20032;-62
2023/10/18 11:06:32;;;;;;;18.48;12.27;;;32.60;99.90;;;;;;5073399;28;20051;-62
2023/10/18 11:08:58;;;;;;;19.77;12.73;;;32.60;99.90;;;;;;5073933;28;20499;-62
2023/10/18 11:11:27;;;;;;;19.42;13.02;;;32.70;99.90;;;;;;5073676;28;20120;-63
2023/10/18 11:14:27;;;;;;;16.60;13.43;;;32.70;99.90;;;;;;5056308;28;20044;-63
2023/10/18 11:17:03;;;;;;;22.08;16.58;;;32.70;99.90;;;;;;5073680;28;20012;-63
2023/10/18 11:19:29;;;;;;;19.52;13.55;;;32.70;99.90;;;;;;5064827;28;20025;-63
2023/10/18 11:21:58;;;;;;;22.15;14.65;;;32.60;99.90;;;;;;5073314;28;20016;-63
2023/10/18 11:24:24;;;;;;;21.25;13.23;;;32.60;99.90;;;;;;5073681;28;20041;-62
2023/10/18 11:26:51;;;;;;;23.40;13.55;;;32.80;99.90;;;;;;5073782;28;20027;-62
2023/10/18 11:29:24;;;;;;;22.60;12.85;;;32.70;99.90;;;;;;5055366;28;20034;-62
2023/10/18 11:31:55;;;;;;;23.55;14.65;;;32.60;99.90;;;;;;5073569;28;20146;-62
2023/10/18 11:34:22;;;;;;;19.08;13.63;;;32.70;99.90;;;;;;5059435;28;20063;-63
2023/10/18 11:37:01;;;;;;;21.95;13.73;;;32.70;99.90;;;;;;5059861;28;20024;-63
2023/10/18 11:39:32;;;;;;;28.17;15.10;;;32.80;99.90;;;;;;5059425;28;20074;-63
2023/10/18 11:41:59;;;;;;;19.90;13.40;;;32.80;99.90;;;;;;5055221;28;20020;-62
2023/10/18 11:44:32;;;;;;;19.35;12.52;;;32.80;99.90;;;;;;5052988;28;20460;-62
2023/10/18 11:47:20;;;;;;;32.55;16.10;;;32.80;99.90;;;;;;5068603;28;20020;-62
2023/10/18 11:49:53;;;;;;;20.10;12.77;;;32.80;99.90;;;;;;5068342;28;20028;-63
2023/10/18 11:52:22;;;;;;;17.10;13.68;;;32.90;99.90;;;;;;5068845;28;20047;-63
2023/10/18 11:55:02;;;;;;;24.85;13.90;;;32.90;99.90;;;;;;5048932;28;20012;-63
2023/10/18 11:57:29;;;;;;;16.23;13.00;;;32.80;99.90;;;;;;5071961;28;20035;-63
2023/10/18 11:59:57;;;;;;;17.10;11.82;;;32.90;99.90;;;;;;5072730;28;20023;-62
2023/10/18 12:02:28;;;;;;;19.67;13.52;;;32.80;99.90;;;;;;5072760;28;20044;-63
2023/10/18 12:04:55;;;;;;;21.35;13.93;;;32.80;99.90;;;;;;5072956;28;20381;-62
2023/10/18 12:07:22;;;;;;;17.75;12.07;;;32.80;99.90;;;;;;5072931;28;20028;-62
2023/10/18 12:09:51;;;;;;;22.23;12.57;;;32.80;99.90;;;;;;5072683;28;20012;-63
2023/10/18 12:12:20;;;;;;;16.10;12.45;;;32.80;99.90;;;;;;5072397;28;20028;-62
2023/10/18 12:14:49;;;;;;;14.55;12.55;;;32.80;99.90;;;;;;5072709;28;20051;-62
2023/10/18 12:17:15;;;;;;;18.80;13.10;;;32.80;99.90;;;;;;5072543;28;20031;-62
2023/10/18 12:19:42;;;;;;;20.85;12.50;;;32.80;99.90;;;;;;5072526;28;20025;-62
2023/10/18 12:22:15;;;;;;;15.52;12.82;;;32.80;99.90;;;;;;5059804;28;20029;-63
2023/10/18 12:24:41;;;;;;;16.40;12.63;;;32.80;99.90;;;;;;5053458;28;20104;-62
2023/10/18 12:29:52;;;;;;;18.80;12.77;;;32.80;99.90;;;;;;5072469;28;20036;-62
2023/10/18 12:32:30;;;;;;;19.75;12.85;;;32.80;99.90;;;;;;5072211;28;20032;-63
2023/10/18 12:34:56;;;;;;;20.35;12.77;;;32.80;99.90;;;;;;5072193;28;20129;-62
2023/10/18 12:37:26;;;;;;;20.67;13.90;;;32.80;99.90;;;;;;5054422;28;20028;-62
2023/10/18 12:39:51;;;;;;;20.67;13.55;;;32.80;99.90;;;;;;5072068;28;20045;-62
2023/10/18 12:42:21;;;;;;;18.50;13.27;;;32.80;99.90;;;;;;5072175;28;20045;-62
2023/10/18 12:44:47;;;;;;;16.33;13.32;;;32.70;99.90;;;;;;5072192;28;20114;-64
2023/10/18 12:47:19;;;;;;;17.45;12.85;;;32.70;99.90;;;;;;5071963;28;20021;-59
2023/10/18 12:49:46;;;;;;;18.73;13.38;;;32.70;99.90;;;;;;5057713;28;20036;-60
2023/10/18 12:55:43;;;;;;;19.13;13.43;;;32.80;99.90;;;;;;5029873;28;20040;-65
2023/10/18 12:58:09;;;;;;;18.50;12.88;;;32.80;99.90;;;;;;5063483;28;20293;-67
2023/10/18 13:00:42;;;;;;;17.83;13.13;;;32.80;99.90;;;;;;5045059;28;20391;-67
2023/10/18 13:03:33;;;;;;;20.85;12.82;;;32.80;99.90;;;;;;5066146;28;20061;-69
2023/10/18 13:05:58;;;;;;;16.65;12.60;;;32.80;99.90;;;;;;5065572;28;20028;-63
2023/10/18 13:08:26;;;;;;;17.30;12.18;;;32.80;99.90;;;;;;5063827;28;20029;-61
2023/10/18 13:11:44;;;;;;;16.00;11.73;;;32.80;99.90;;;;;;5046541;28;20492;-65
2023/10/18 13:13:46;;;;;;;20.65;12.93;;;32.80;99.90;;;;;;5056230;28;20041;-65
2023/10/18 13:16:15;;;;;;;17.40;12.20;;;32.80;99.90;;;;;;5064921;28;20035;-62
2023/10/18 13:18:41;;;;;;;16.50;12.15;;;32.80;99.90;;;;;;5072795;28;20077;-63
2023/10/18 13:21:11;;;;;;;20.63;12.25;;;32.80;99.90;;;;;;5071616;28;20032;-62
2023/10/18 13:23:37;;;;;;;18.05;12.75;;;32.80;99.90;;;;;;5062899;28;20032;-63
2023/10/18 13:26:04;;;;;;;19.17;13.57;;;32.80;99.90;;;;;;5066789;28;20025;-61
2023/10/18 13:31:22;;;;;;;19.25;13.15;;;32.70;99.90;;;;;;5055754;28;20440;-61
2023/10/18 13:33:52;;;;;;;19.60;13.32;;;32.80;99.90;;;;;;5069482;28;20039;-62
2023/10/18 13:36:23;;;;;;;14.48;11.82;;;32.80;99.90;;;;;;5065400;28;20059;-66
2023/10/18 13:38:53;;;;;;;16.88;12.93;;;32.80;99.90;;;;;;5059588;28;20021;-60
2023/10/18 13:41:19;;;;;;;19.05;12.18;;;32.70;99.90;;;;;;5062924;28;20028;-64
2023/10/18 13:43:45;;;;;;;19.42;13.40;;;32.80;99.90;;;;;;5051828;28;20127;-59
2023/10/18 13:46:27;;;;;;;13.52;12.07;;;32.80;99.90;;;;;;5069622;28;20497;-59
2023/10/18 13:48:52;;;;;;;18.60;12.50;;;32.70;99.90;;;;;;5046863;28;20054;-62
2023/10/18 13:51:19;;;;;;;17.25;12.35;;;32.70;99.90;;;;;;5059917;28;20021;-64
2023/10/18 13:53:45;;;;;;;21.42;14.20;;;32.70;99.90;;;;;;5070049;28;20044;-60
2023/10/18 13:56:12;;;;;;;22.02;13.18;;;32.60;99.90;;;;;;5070160;28;20031;-57
2023/10/18 13:58:39;;;;;;;15.98;12.65;;;32.60;99.90;;;;;;5066630;28;20102;-59